Budapest Bridge — VRIZ5 — position and weather

sailwx.info

Track history (hours):
 
Tides and Currents Weather Stations Pressure Air Temp Water Temp Dewpoint Dewpoint Depression Visibility Wind Speed Wind Dir Waves Ship Positions

Budapest Bridge

Last reported at 2017-Dec-10 17:01 UTC. Time now 2017-Dec-11 02:02 UTC.
Position N 35°60' W 009°30'.

Length 268 m; draft 10 m.

Type: Ship (hazmat cat A). MMSI: 477434200.

Date/timePositionNaut miles runAvg speedWind from/ knotsBaromVisibWave heightAir tempDewpointWater temp
2017-Dec-10 17:01N 35°60' W 009°30'015.2
2017-Dec-10 17:00N 35°60' W 009°30'815.0
2017-Dec-10 16:30N 36°01' W 009°39'814.9
2017-Dec-10 16:00N 36°03' W 009°48'66213.7
2017-Dec-08 15:35N 37°21' W 023°28'212.5
2017-Dec-08 15:26N 37°21' W 023°30'512.6
2017-Dec-08 15:00N 37°22' W 023°37'612.5
2017-Dec-08 14:30N 37°22' W 023°45'612.8
2017-Dec-08 14:00N 37°23' W 023°53'612.6
2017-Dec-08 13:30N 37°23' W 024°01'612.7
2017-Dec-08 13:00N 37°23' W 024°09'612.5
2017-Dec-08 12:30N 37°23' W 024°17'612.4
2017-Dec-08 12:00N 37°24' W 024°24'612.3
2017-Dec-08 11:30N 37°24' W 024°32'611.9
2017-Dec-08 11:00N 37°25' W 024°40'611.6
2017-Dec-08 10:30N 37°25' W 024°47'611.8
2017-Dec-08 10:00N 37°25' W 024°54'713.5
2017-Dec-08 09:30N 37°25' W 025°03'713.6
2017-Dec-08 09:00N 37°26' W 025°11'713.6
2017-Dec-08 08:30N 37°26' W 025°20'713.7
2017-Dec-08 08:00N 37°26' W 025°28'713.5
2017-Dec-08 07:30N 37°26' W 025°37'713.8
2017-Dec-08 07:00N 37°27' W 025°46'714.1
2017-Dec-08 06:31N 37°27' W 025°54'713.7
2017-Dec-08 06:00N 37°27' W 026°03'713.7
2017-Dec-08 05:30N 37°27' W 026°12'713.9
2017-Dec-08 05:01N 37°27' W 026°20'714.0
2017-Dec-08 04:31N 37°28' W 026°29'713.6
2017-Dec-08 04:00N 37°28' W 026°38'713.7
2017-Dec-08 03:30N 37°28' W 026°47'713.6
2017-Dec-08 03:00N 37°28' W 026°55'713.6
2017-Dec-08 02:30N 37°29' W 027°04'713.6
2017-Dec-08 02:01N 37°29' W 027°12'713.6
2017-Dec-08 01:31N 37°29' W 027°21'713.4
2017-Dec-08 01:00N 37°30' W 027°29'713.2
2017-Dec-08 00:30N 37°30' W 027°37'713.5
2017-Dec-08 00:00N 37°30' W 027°46'713.5
2017-Dec-07 23:30N 37°30' W 027°54'713.4
2017-Dec-07 23:00N 37°31' W 028°03'613.1
2017-Dec-07 22:31N 37°31' W 028°11'612.9
2017-Dec-07 22:00N 37°31' W 028°19'612.9
2017-Dec-07 21:30N 37°32' W 028°27'612.7
2017-Dec-07 21:01N 37°32' W 028°35'713.2
2017-Dec-07 20:30N 37°32' W 028°44'713.2
2017-Dec-07 20:00N 37°32' W 028°52'713.3
2017-Dec-07 19:30N 37°32' W 029°00'713.3
2017-Dec-07 19:00N 37°33' W 029°09'713.3
2017-Dec-07 18:30N 37°33' W 029°17'713.3
2017-Dec-07 18:00N 37°33' W 029°26'713.5
2017-Dec-07 17:30N 37°34' W 029°34'713.5
2017-Dec-07 17:00N 37°34' W 029°43'713.4
2017-Dec-07 16:30N 37°34' W 029°51'713.3
2017-Dec-07 16:00N 37°34' W 029°59'713.4
2017-Dec-07 15:30N 37°34' W 030°08'713.5
2017-Dec-07 15:00N 37°34' W 030°17'713.2
2017-Dec-07 14:30N 37°34' W 030°25'613.3
2017-Dec-07 14:00N 37°34' W 030°33'813.6
2017-Dec-07 13:25N 37°34' W 030°43'713.4
2017-Dec-07 12:55N 37°34' W 030°52'  
2017-Dec-01 14:47N 31°55' W 079°52'1317.0
2017-Dec-01 14:03N 31°55' W 080°07'117.1
2017-Dec-01 14:00N 31°55' W 080°07'917.2
2017-Dec-01 13:30N 31°55' W 080°18'715.2
2017-Dec-01 13:00N 31°55' W 080°26'5 9.4
2017-Dec-01 12:30N 31°55' W 080°32'4 8.5
2017-Dec-01 12:00N 31°57' W 080°37'4 8.7
2017-Dec-01 11:30N 31°57' W 080°42'510.6
2017-Dec-01 11:00N 31°60' W 080°47'612.5
2017-Dec-01 10:30N 32°02' W 080°54'510.0
2017-Dec-01 10:00N 32°05' W 080°59'3 6.3
2017-Dec-01 09:30N 32°05' W 081°03'3 5.4
2017-Dec-01 09:00N 32°05' W 081°06'2 4.1
2017-Dec-01 08:30N 32°07' W 081°07'1 1.1
2017-Dec-01 07:52N 32°07' W 081°08'0 0.0
2017-Dec-01 07:28N 32°07' W 081°08'0 0.0
2017-Dec-01 06:46N 32°07' W 081°08'0 0.0
2017-Dec-01 06:28N 32°07' W 081°08'0 0.0
2017-Dec-01 05:58N 32°07' W 081°08'0 0.0
2017-Dec-01 05:28N 32°07' W 081°08'0 0.0
2017-Dec-01 04:58N 32°07' W 081°08'0 0.0
2017-Dec-01 04:28N 32°07' W 081°08'0 0.0
2017-Dec-01 03:58N 32°07' W 081°08'0 0.0
2017-Dec-01 03:28N 32°07' W 081°08'0 0.0
2017-Dec-01 02:52N 32°07' W 081°08'0 0.0
2017-Dec-01 02:10N 32°07' W 081°08'0 0.0
2017-Dec-01 01:46N 32°07' W 081°08'0 0.0
2017-Dec-01 01:28N 32°07' W 081°08'0 0.0
2017-Dec-01 00:58N 32°07' W 081°08'0 0.0
2017-Dec-01 00:28N 32°07' W 081°08'0 0.0
2017-Nov-30 23:58N 32°07' W 081°08'0 0.0
2017-Nov-30 23:28N 32°07' W 081°08'0 0.0
2017-Nov-30 22:58N 32°07' W 081°08'0 0.0
2017-Nov-30 22:22N 32°07' W 081°08'0 0.0
2017-Nov-30 21:52N 32°07' W 081°08'0 0.0
2017-Nov-30 21:28N 32°07' W 081°08'0 0.0
2017-Nov-30 20:58N 32°07' W 081°08'0 0.0
2017-Nov-30 20:28N 32°07' W 081°08'0 0.0
2017-Nov-30 19:58N 32°07' W 081°08'0 0.0
2017-Nov-30 19:28N 32°07' W 081°08'0 0.0
2017-Nov-30 18:58N 32°07' W 081°08'1 1.2
2017-Nov-30 18:30N 32°08' W 081°08'1 2.7
2017-Nov-30 18:00N 32°07' W 081°07'3 6.2
2017-Nov-30 17:30N 32°05' W 081°04'  
Track history (hours):
 
Tides and Currents Weather Stations Pressure Air Temp Water Temp Dewpoint Dewpoint Depression Visibility Wind Speed Wind Dir Waves Ship Positions

Budapest Bridge

Last reported at 2017-Dec-10 17:01 UTC. Time now 2017-Dec-11 02:02 UTC.
Position N 35°60' W 009°30'.

Length 268 m; draft 10 m.

Type: Ship (hazmat cat A). MMSI: 477434200.

Date/timePositionNaut miles runAvg speedWind from/ knotsBaromVisibWave heightAir tempDewpointWater temp
2017-Dec-10 17:01N 35°60' W 009°30'015.2
2017-Dec-10 17:00N 35°60' W 009°30'815.0
2017-Dec-10 16:30N 36°01' W 009°39'814.9
2017-Dec-10 16:00N 36°03' W 009°48'66213.7
2017-Dec-08 15:35N 37°21' W 023°28'212.5
2017-Dec-08 15:26N 37°21' W 023°30'512.6
2017-Dec-08 15:00N 37°22' W 023°37'612.5
2017-Dec-08 14:30N 37°22' W 023°45'612.8
2017-Dec-08 14:00N 37°23' W 023°53'612.6
2017-Dec-08 13:30N 37°23' W 024°01'612.7
2017-Dec-08 13:00N 37°23' W 024°09'612.5
2017-Dec-08 12:30N 37°23' W 024°17'612.4
2017-Dec-08 12:00N 37°24' W 024°24'612.3
2017-Dec-08 11:30N 37°24' W 024°32'611.9
2017-Dec-08 11:00N 37°25' W 024°40'611.6
2017-Dec-08 10:30N 37°25' W 024°47'611.8
2017-Dec-08 10:00N 37°25' W 024°54'713.5
2017-Dec-08 09:30N 37°25' W 025°03'713.6
2017-Dec-08 09:00N 37°26' W 025°11'713.6
2017-Dec-08 08:30N 37°26' W 025°20'713.7
2017-Dec-08 08:00N 37°26' W 025°28'713.5
2017-Dec-08 07:30N 37°26' W 025°37'713.8
2017-Dec-08 07:00N 37°27' W 025°46'714.1
2017-Dec-08 06:31N 37°27' W 025°54'713.7
2017-Dec-08 06:00N 37°27' W 026°03'713.7
2017-Dec-08 05:30N 37°27' W 026°12'713.9
2017-Dec-08 05:01N 37°27' W 026°20'714.0
2017-Dec-08 04:31N 37°28' W 026°29'713.6
2017-Dec-08 04:00N 37°28' W 026°38'713.7
2017-Dec-08 03:30N 37°28' W 026°47'713.6
2017-Dec-08 03:00N 37°28' W 026°55'713.6
2017-Dec-08 02:30N 37°29' W 027°04'713.6
2017-Dec-08 02:01N 37°29' W 027°12'713.6
2017-Dec-08 01:31N 37°29' W 027°21'713.4
2017-Dec-08 01:00N 37°30' W 027°29'713.2
2017-Dec-08 00:30N 37°30' W 027°37'713.5
2017-Dec-08 00:00N 37°30' W 027°46'713.5
2017-Dec-07 23:30N 37°30' W 027°54'713.4
2017-Dec-07 23:00N 37°31' W 028°03'613.1
2017-Dec-07 22:31N 37°31' W 028°11'612.9
2017-Dec-07 22:00N 37°31' W 028°19'612.9
2017-Dec-07 21:30N 37°32' W 028°27'612.7
2017-Dec-07 21:01N 37°32' W 028°35'713.2
2017-Dec-07 20:30N 37°32' W 028°44'713.2
2017-Dec-07 20:00N 37°32' W 028°52'713.3
2017-Dec-07 19:30N 37°32' W 029°00'713.3
2017-Dec-07 19:00N 37°33' W 029°09'713.3
2017-Dec-07 18:30N 37°33' W 029°17'713.3
2017-Dec-07 18:00N 37°33' W 029°26'713.5
2017-Dec-07 17:30N 37°34' W 029°34'713.5
2017-Dec-07 17:00N 37°34' W 029°43'713.4
2017-Dec-07 16:30N 37°34' W 029°51'713.3
2017-Dec-07 16:00N 37°34' W 029°59'713.4
2017-Dec-07 15:30N 37°34' W 030°08'713.5
2017-Dec-07 15:00N 37°34' W 030°17'713.2
2017-Dec-07 14:30N 37°34' W 030°25'613.3
2017-Dec-07 14:00N 37°34' W 030°33'813.6
2017-Dec-07 13:25N 37°34' W 030°43'713.4
2017-Dec-07 12:55N 37°34' W 030°52'  
2017-Dec-01 14:47N 31°55' W 079°52'1317.0
2017-Dec-01 14:03N 31°55' W 080°07'117.1
2017-Dec-01 14:00N 31°55' W 080°07'917.2
2017-Dec-01 13:30N 31°55' W 080°18'715.2
2017-Dec-01 13:00N 31°55' W 080°26'5 9.4
2017-Dec-01 12:30N 31°55' W 080°32'4 8.5
2017-Dec-01 12:00N 31°57' W 080°37'4 8.7
2017-Dec-01 11:30N 31°57' W 080°42'510.6
2017-Dec-01 11:00N 31°60' W 080°47'612.5
2017-Dec-01 10:30N 32°02' W 080°54'510.0
2017-Dec-01 10:00N 32°05' W 080°59'3 6.3
2017-Dec-01 09:30N 32°05' W 081°03'3 5.4
2017-Dec-01 09:00N 32°05' W 081°06'2 4.1
2017-Dec-01 08:30N 32°07' W 081°07'1 1.1
2017-Dec-01 07:52N 32°07' W 081°08'0 0.0
2017-Dec-01 07:28N 32°07' W 081°08'0 0.0
2017-Dec-01 06:46N 32°07' W 081°08'0 0.0
2017-Dec-01 06:28N 32°07' W 081°08'0 0.0
2017-Dec-01 05:58N 32°07' W 081°08'0 0.0
2017-Dec-01 05:28N 32°07' W 081°08'0 0.0
2017-Dec-01 04:58N 32°07' W 081°08'0 0.0
2017-Dec-01 04:28N 32°07' W 081°08'0 0.0
2017-Dec-01 03:58N 32°07' W 081°08'0 0.0
2017-Dec-01 03:28N 32°07' W 081°08'0 0.0
2017-Dec-01 02:52N 32°07' W 081°08'0 0.0
2017-Dec-01 02:10N 32°07' W 081°08'0 0.0
2017-Dec-01 01:46N 32°07' W 081°08'0 0.0
2017-Dec-01 01:28N 32°07' W 081°08'0 0.0
2017-Dec-01 00:58N 32°07' W 081°08'0 0.0
2017-Dec-01 00:28N 32°07' W 081°08'0 0.0
2017-Nov-30 23:58N 32°07' W 081°08'0 0.0
2017-Nov-30 23:28N 32°07' W 081°08'0 0.0
2017-Nov-30 22:58N 32°07' W 081°08'0 0.0
2017-Nov-30 22:22N 32°07' W 081°08'0 0.0
2017-Nov-30 21:52N 32°07' W 081°08'0 0.0
2017-Nov-30 21:28N 32°07' W 081°08'0 0.0
2017-Nov-30 20:58N 32°07' W 081°08'0 0.0
2017-Nov-30 20:28N 32°07' W 081°08'0 0.0
2017-Nov-30 19:58N 32°07' W 081°08'0 0.0
2017-Nov-30 19:28N 32°07' W 081°08'0 0.0
2017-Nov-30 18:58N 32°07' W 081°08'1 1.2
2017-Nov-30 18:30N 32°08' W 081°08'1 2.7
2017-Nov-30 18:00N 32°07' W 081°07'3 6.2
2017-Nov-30 17:30N 32°05' W 081°04'  

Dump ship's entire track history